sensor_id;sensor_type;location;lat;lon;timestamp;pressure;altitude;pressure_sealevel;temperature;humidity
63321;BME280;49449;48.800;9.534;2023-02-12T00:00:38;100551.69;;;6.03;40.48
63321;BME280;49449;48.800;9.534;2023-02-12T00:03:06;100539.72;;;6.01;40.14
63321;BME280;49449;48.800;9.534;2023-02-12T00:05:36;100560.56;;;6.02;40.25
63321;BME280;49449;48.800;9.534;2023-02-12T00:08:04;100546.31;;;6.05;40.18
63321;BME280;49449;48.800;9.534;2023-02-12T00:10:32;100549.88;;;6.04;40.30
63321;BME280;49449;48.800;9.534;2023-02-12T00:13:00;100556.13;;;6.03;40.51
63321;BME280;49449;48.800;9.534;2023-02-12T00:15:29;100556.13;;;6.03;40.09
63321;BME280;49449;48.800;9.534;2023-02-12T00:17:57;100561.09;;;6.06;40.33
63321;BME280;49449;48.800;9.534;2023-02-12T00:20:25;100562.19;;;6.03;39.79
63321;BME280;49449;48.800;9.534;2023-02-12T00:22:52;100562.47;;;6.00;40.35
63321;BME280;49449;48.800;9.534;2023-02-12T00:25:20;100548.41;;;6.01;39.99
63321;BME280;49449;48.800;9.534;2023-02-12T00:27:48;100553.66;;;6.01;40.43
63321;BME280;49449;48.800;9.534;2023-02-12T00:30:16;100547.59;;;6.01;39.91
63321;BME280;49449;48.800;9.534;2023-02-12T00:32:45;100555.13;;;6.04;40.02
63321;BME280;49449;48.800;9.534;2023-02-12T00:35:13;100547.44;;;6.02;40.21
63321;BME280;49449;48.800;9.534;2023-02-12T00:37:41;100549.38;;;6.00;40.18
63321;BME280;49449;48.800;9.534;2023-02-12T00:40:09;100550.63;;;5.96;40.03
63321;BME280;49449;48.800;9.534;2023-02-12T00:42:37;100556.03;;;5.95;40.35
63321;BME280;49449;48.800;9.534;2023-02-12T00:45:06;100556.72;;;5.97;39.92
63321;BME280;49449;48.800;9.534;2023-02-12T00:47:34;100562.94;;;5.96;39.98
63321;BME280;49449;48.800;9.534;2023-02-12T00:50:03;100560.59;;;5.93;40.23
63321;BME280;49449;48.800;9.534;2023-02-12T00:52:31;100560.31;;;5.96;39.77
63321;BME280;49449;48.800;9.534;2023-02-12T00:54:59;100569.69;;;5.98;39.50
63321;BME280;49449;48.800;9.534;2023-02-12T00:57:26;100564.19;;;5.92;39.14
63321;BME280;49449;48.800;9.534;2023-02-12T00:59:54;100563.88;;;5.77;39.78
63321;BME280;49449;48.800;9.534;2023-02-12T01:02:22;100560.31;;;5.68;40.23
63321;BME280;49449;48.800;9.534;2023-02-12T01:04:50;100554.50;;;5.74;40.53
63321;BME280;49449;48.800;9.534;2023-02-12T01:07:19;100562.91;;;5.78;40.45
63321;BME280;49449;48.800;9.534;2023-02-12T01:09:47;100554.88;;;5.79;40.43
63321;BME280;49449;48.800;9.534;2023-02-12T01:12:15;100559.00;;;5.82;40.11
63321;BME280;49449;48.800;9.534;2023-02-12T01:14:42;100559.00;;;5.82;40.34
63321;BME280;49449;48.800;9.534;2023-02-12T01:17:10;100555.25;;;5.84;40.34
63321;BME280;49449;48.800;9.534;2023-02-12T01:19:38;100559.56;;;5.85;40.20
63321;BME280;49449;48.800;9.534;2023-02-12T01:22:06;100557.75;;;5.86;40.70
63321;BME280;49449;48.800;9.534;2023-02-12T01:24:35;100545.28;;;5.88;39.92
63321;BME280;49449;48.800;9.534;2023-02-12T01:27:02;100552.34;;;5.87;39.63
63321;BME280;49449;48.800;9.534;2023-02-12T01:29:30;100561.25;;;5.77;40.12
63321;BME280;49449;48.800;9.534;2023-02-12T01:31:58;100553.38;;;5.77;39.93
63321;BME280;49449;48.800;9.534;2023-02-12T01:34:26;100554.06;;;5.79;40.38
63321;BME280;49449;48.800;9.534;2023-02-12T01:36:53;100557.34;;;5.81;40.12
63321;BME280;49449;48.800;9.534;2023-02-12T01:39:21;100562.31;;;5.84;40.33
63321;BME280;49449;48.800;9.534;2023-02-12T01:41:50;100563.97;;;5.85;40.15
63321;BME280;49449;48.800;9.534;2023-02-12T01:44:20;100558.41;;;5.88;39.87
63321;BME280;49449;48.800;9.534;2023-02-12T01:46:56;100550.88;;;5.85;40.35
63321;BME280;49449;48.800;9.534;2023-02-12T01:49:27;100547.25;;;5.86;40.18
63321;BME280;49449;48.800;9.534;2023-02-12T01:51:58;100543.81;;;5.85;40.27
63321;BME280;49449;48.800;9.534;2023-02-12T01:54:28;100552.34;;;5.87;40.52
63321;BME280;49449;48.800;9.534;2023-02-12T01:56:58;100548.91;;;5.87;40.18
63321;BME280;49449;48.800;9.534;2023-02-12T01:59:27;100552.63;;;5.84;39.97
63321;BME280;49449;48.800;9.534;2023-02-12T02:01:56;100552.63;;;5.84;40.24
63321;BME280;49449;48.800;9.534;2023-02-12T02:04:28;100549.47;;;5.81;40.03
63321;BME280;49449;48.800;9.534;2023-02-12T02:06:58;100556.53;;;5.80;40.64
63321;BME280;49449;48.800;9.534;2023-02-12T02:09:29;100551.44;;;5.79;40.46
63321;BME280;49449;48.800;9.534;2023-02-12T02:11:58;100542.06;;;5.76;40.91
63321;BME280;49449;48.800;9.534;2023-02-12T02:14:45;100549.28;;;5.74;40.73
63321;BME280;49449;48.800;9.534;2023-02-12T02:17:28;100543.31;;;5.72;40.63
63321;BME280;49449;48.800;9.534;2023-02-12T02:22:42;100536.97;;;5.75;40.12
63321;BME280;49449;48.800;9.534;2023-02-12T02:25:27;100530.34;;;5.70;40.62
63321;BME280;49449;48.800;9.534;2023-02-12T02:28:13;100534.78;;;5.70;40.33
63321;BME280;49449;48.800;9.534;2023-02-12T02:30:50;100528.56;;;5.71;40.27
63321;BME280;49449;48.800;9.534;2023-02-12T02:33:29;100522.47;;;5.70;40.81
63321;BME280;49449;48.800;9.534;2023-02-12T02:36:13;100527.72;;;5.70;39.98
63321;BME280;49449;48.800;9.534;2023-02-12T02:38:49;100525.09;;;5.70;40.17
63321;BME280;49449;48.800;9.534;2023-02-12T02:41:21;100528.72;;;5.69;40.28
63321;BME280;49449;48.800;9.534;2023-02-12T02:43:53;100522.66;;;5.69;40.21
63321;BME280;49449;48.800;9.534;2023-02-12T02:46:28;100525.09;;;5.70;40.35
63321;BME280;49449;48.800;9.534;2023-02-12T02:48:59;100526.63;;;5.73;40.43
63321;BME280;49449;48.800;9.534;2023-02-12T02:51:32;100526.63;;;5.73;40.57
63321;BME280;49449;48.800;9.534;2023-02-12T02:54:05;100526.75;;;5.71;40.49
63321;BME280;49449;48.800;9.534;2023-02-12T02:56:37;100523.47;;;5.69;40.79
63321;BME280;49449;48.800;9.534;2023-02-12T02:59:09;100528.72;;;5.69;40.48
63321;BME280;49449;48.800;9.534;2023-02-12T03:01:42;100524.28;;;5.70;40.22
63321;BME280;49449;48.800;9.534;2023-02-12T03:04:16;100527.91;;;5.69;40.42
63321;BME280;49449;48.800;9.534;2023-02-12T03:06:51;100530.19;;;5.72;40.26
63321;BME280;49449;48.800;9.534;2023-02-12T03:09:23;100533.69;;;5.73;40.00
63321;BME280;49449;48.800;9.534;2023-02-12T03:11:56;100531.19;;;5.71;40.09
63321;BME280;49449;48.800;9.534;2023-02-12T03:14:28;100534.91;;;5.68;40.12
63321;BME280;49449;48.800;9.534;2023-02-12T03:17:02;100539.34;;;5.68;40.78
63321;BME280;49449;48.800;9.534;2023-02-12T03:19:34;100533.16;;;5.69;40.21
63321;BME280;49449;48.800;9.534;2023-02-12T03:22:03;100538.69;;;5.66;40.83
63321;BME280;49449;48.800;9.534;2023-02-12T03:24:35;100541.00;;;5.69;40.06
63321;BME280;49449;48.800;9.534;2023-02-12T03:27:08;100550.66;;;5.68;40.41
63321;BME280;49449;48.800;9.534;2023-02-12T03:29:37;100543.47;;;5.70;39.98
63321;BME280;49449;48.800;9.534;2023-02-12T03:32:15;100550.50;;;5.70;40.22
63321;BME280;49449;48.800;9.534;2023-02-12T03:34:50;100542.94;;;5.67;40.32
63321;BME280;49449;48.800;9.534;2023-02-12T03:37:26;100541.16;;;5.67;40.48
63321;BME280;49449;48.800;9.534;2023-02-12T03:40:00;100529.53;;;5.70;40.27
63321;BME280;49449;48.800;9.534;2023-02-12T03:42:35;100538.38;;;5.69;39.93
63321;BME280;49449;48.800;9.534;2023-02-12T03:45:09;100538.53;;;5.67;40.34
63321;BME280;49449;48.800;9.534;2023-02-12T03:47:46;100540.47;;;5.65;40.31
63321;BME280;49449;48.800;9.534;2023-02-12T03:50:18;100542.13;;;5.66;40.34
63321;BME280;49449;48.800;9.534;2023-02-12T03:52:48;100544.88;;;5.65;40.42
63321;BME280;49449;48.800;9.534;2023-02-12T03:55:16;100543.91;;;5.66;40.49
63321;BME280;49449;48.800;9.534;2023-02-12T03:57:48;100538.38;;;5.69;40.37
63321;BME280;49449;48.800;9.534;2023-02-12T04:00:20;100545.41;;;5.68;40.64
63321;BME280;49449;48.800;9.534;2023-02-12T04:02:49;100545.56;;;5.67;40.34
63321;BME280;49449;48.800;9.534;2023-02-12T04:05:20;100550.97;;;5.65;40.30
63321;BME280;49449;48.800;9.534;2023-02-12T04:07:48;100554.41;;;5.66;40.70
63321;BME280;49449;48.800;9.534;2023-02-12T04:10:17;100557.84;;;5.66;40.34
63321;BME280;49449;48.800;9.534;2023-02-12T04:12:51;100558.97;;;5.64;40.53
63321;BME280;49449;48.800;9.534;2023-02-12T04:15:30;100565.31;;;5.61;40.63
63321;BME280;49449;48.800;9.534;2023-02-12T04:18:09;100573.19;;;5.61;40.55
63321;BME280;49449;48.800;9.534;2023-02-12T04:20:49;100565.19;;;5.63;41.23
63321;BME280;49449;48.800;9.534;2023-02-12T04:23:30;100570.44;;;5.63;40.97
63321;BME280;49449;48.800;9.534;2023-02-12T04:26:09;100567.00;;;5.62;40.35
63321;BME280;49449;48.800;9.534;2023-02-12T04:28:42;100560.22;;;5.60;40.42
63321;BME280;49449;48.800;9.534;2023-02-12T04:31:19;100564.38;;;5.62;41.10
63321;BME280;49449;48.800;9.534;2023-02-12T04:33:57;100574.03;;;5.62;40.46
63321;BME280;49449;48.800;9.534;2023-02-12T04:36:32;100575.66;;;5.63;40.61
63321;BME280;49449;48.800;9.534;2023-02-12T04:39:03;100574.03;;;5.62;40.40
63321;BME280;49449;48.800;9.534;2023-02-12T04:41:33;100571.56;;;5.60;40.78
63321;BME280;49449;48.800;9.534;2023-02-12T04:44:16;100569.22;;;5.57;41.11
63321;BME280;49449;48.800;9.534;2023-02-12T04:46:44;100569.06;;;5.59;40.30
63321;BME280;49449;48.800;9.534;2023-02-12T04:49:15;100569.06;;;5.59;40.33
63321;BME280;49449;48.800;9.534;2023-02-12T04:51:43;100570.19;;;5.56;40.59
63321;BME280;49449;48.800;9.534;2023-02-12T04:54:12;100574.59;;;5.56;40.02
63321;BME280;49449;48.800;9.534;2023-02-12T04:56:40;100567.56;;;5.56;40.75
63321;BME280;49449;48.800;9.534;2023-02-12T04:59:08;100565.06;;;5.55;40.62
63321;BME280;49449;48.800;9.534;2023-02-12T05:01:37;100565.91;;;5.55;40.40
63321;BME280;49449;48.800;9.534;2023-02-12T05:04:07;100570.19;;;5.56;40.57
63321;BME280;49449;48.800;9.534;2023-02-12T05:06:38;100572.94;;;5.55;40.61
63321;BME280;49449;48.800;9.534;2023-02-12T05:09:06;100568.81;;;5.52;40.74
63321;BME280;49449;48.800;9.534;2023-02-12T05:11:34;100572.94;;;5.55;40.74
63321;BME280;49449;48.800;9.534;2023-02-12T05:14:02;100567.69;;;5.55;40.45
63321;BME280;49449;48.800;9.534;2023-02-12T05:16:30;100572.94;;;5.55;40.96
63321;BME280;49449;48.800;9.534;2023-02-12T05:18:58;100563.44;;;5.54;40.69
63321;BME280;49449;48.800;9.534;2023-02-12T05:21:26;100557.38;;;5.53;40.57
63321;BME280;49449;48.800;9.534;2023-02-12T05:23:55;100554.75;;;5.53;40.49
63321;BME280;49449;48.800;9.534;2023-02-12T05:26:23;100564.25;;;5.54;40.52
63321;BME280;49449;48.800;9.534;2023-02-12T05:28:50;100563.84;;;5.49;40.68
63321;BME280;49449;48.800;9.534;2023-02-12T05:31:19;100566.47;;;5.49;40.60
63321;BME280;49449;48.800;9.534;2023-02-12T05:33:48;100563.84;;;5.49;40.85
63321;BME280;49449;48.800;9.534;2023-02-12T05:36:18;100571.88;;;5.47;40.79
63321;BME280;49449;48.800;9.534;2023-02-12T05:38:46;100568.16;;;5.50;40.68
63321;BME280;49449;48.800;9.534;2023-02-12T05:41:17;100570.22;;;5.46;43.62
63321;BME280;49449;48.800;9.534;2023-02-12T05:43:45;100564.16;;;5.46;41.22
63321;BME280;49449;48.800;9.534;2023-02-12T05:46:15;100571.31;;;5.44;40.91
63321;BME280;49449;48.800;9.534;2023-02-12T05:48:43;100570.50;;;5.43;40.66
63321;BME280;49449;48.800;9.534;2023-02-12T05:51:13;100571.31;;;5.44;40.64
63321;BME280;49449;48.800;9.534;2023-02-12T05:53:42;100572.75;;;5.38;41.18
63321;BME280;49449;48.800;9.534;2023-02-12T05:56:12;100577.16;;;5.38;40.89
63321;BME280;49449;48.800;9.534;2023-02-12T05:58:44;100578.97;;;5.37;40.83
63321;BME280;49449;48.800;9.534;2023-02-12T06:01:14;100573.88;;;5.36;40.91
63321;BME280;49449;48.800;9.534;2023-02-12T06:03:43;100578.56;;;5.32;41.00
63321;BME280;49449;48.800;9.534;2023-02-12T06:06:11;100585.59;;;5.31;40.94
63321;BME280;49449;48.800;9.534;2023-02-12T06:08:39;100581.06;;;5.33;40.99
63321;BME280;49449;48.800;9.534;2023-02-12T06:11:10;100580.06;;;5.35;40.93
63321;BME280;49449;48.800;9.534;2023-02-12T06:13:40;100578.13;;;5.37;40.51
63321;BME280;49449;48.800;9.534;2023-02-12T06:16:16;100579.78;;;5.38;40.84
63321;BME280;49449;48.800;9.534;2023-02-12T06:18:44;100578.25;;;5.35;40.67
63321;BME280;49449;48.800;9.534;2023-02-12T06:21:12;100587.81;;;5.26;40.75
63321;BME280;49449;48.800;9.534;2023-02-12T06:23:40;100582.47;;;5.08;41.06
63321;BME280;49449;48.800;9.534;2023-02-12T06:26:08;100577.78;;;5.12;40.93
63321;BME280;49449;48.800;9.534;2023-02-12T06:28:36;100578.72;;;5.21;40.94
63321;BME280;49449;48.800;9.534;2023-02-12T06:31:16;100582.47;;;5.18;40.80
63321;BME280;49449;48.800;9.534;2023-02-12T06:33:44;100583.28;;;5.19;41.32
63321;BME280;49449;48.800;9.534;2023-02-12T06:36:11;100586.84;;;5.27;40.95
63321;BME280;49449;48.800;9.534;2023-02-12T06:38:39;100586.31;;;5.24;41.40
63321;BME280;49449;48.800;9.534;2023-02-12T06:41:07;100588.50;;;5.28;41.49
63321;BME280;49449;48.800;9.534;2023-02-12T06:43:36;100598.16;;;5.28;41.59
63321;BME280;49449;48.800;9.534;2023-02-12T06:46:05;100595.00;;;5.24;41.56
63321;BME280;49449;48.800;9.534;2023-02-12T06:48:33;100593.22;;;5.25;41.71
63321;BME280;49449;48.800;9.534;2023-02-12T06:51:05;100599.69;;;5.30;41.28
63321;BME280;49449;48.800;9.534;2023-02-12T06:53:34;100596.91;;;5.32;41.38
63321;BME280;49449;48.800;9.534;2023-02-12T06:56:03;100600.22;;;5.34;41.54
63321;BME280;49449;48.800;9.534;2023-02-12T06:58:31;100599.53;;;5.32;41.74
63321;BME280;49449;48.800;9.534;2023-02-12T07:01:08;100602.97;;;5.32;41.67
63321;BME280;49449;48.800;9.534;2023-02-12T07:03:38;100610.84;;;5.32;41.23
63321;BME280;49449;48.800;9.534;2023-02-12T07:06:07;100608.22;;;5.32;41.33
63321;BME280;49449;48.800;9.534;2023-02-12T07:08:36;100610.56;;;5.36;41.17
63321;BME280;49449;48.800;9.534;2023-02-12T07:11:04;100608.63;;;5.38;41.62
63321;BME280;49449;48.800;9.534;2023-02-12T07:13:32;100606.81;;;5.38;41.20
63321;BME280;49449;48.800;9.534;2023-02-12T07:16:04;100607.63;;;5.39;41.36
63321;BME280;49449;48.800;9.534;2023-02-12T07:18:33;100612.47;;;5.43;41.34
63321;BME280;49449;48.800;9.534;2023-02-12T07:21:02;100617.84;;;5.42;41.00
63321;BME280;49449;48.800;9.534;2023-02-12T07:23:30;100616.75;;;5.44;41.34
63321;BME280;49449;48.800;9.534;2023-02-12T07:26:02;100623.47;;;5.47;41.02
63321;BME280;49449;48.800;9.534;2023-02-12T07:28:31;100625.16;;;5.48;41.42
63321;BME280;49449;48.800;9.534;2023-02-12T07:31:02;100618.91;;;5.49;41.60
63321;BME280;49449;48.800;9.534;2023-02-12T07:33:34;100617.97;;;5.50;41.28
63321;BME280;49449;48.800;9.534;2023-02-12T07:36:04;100617.16;;;5.49;41.24
63321;BME280;49449;48.800;9.534;2023-02-12T07:38:32;100615.06;;;5.43;41.09
63321;BME280;49449;48.800;9.534;2023-02-12T07:41:10;100618.53;;;5.44;41.12
63321;BME280;49449;48.800;9.534;2023-02-12T07:43:38;100612.47;;;5.43;41.01
63321;BME280;49449;48.800;9.534;2023-02-12T07:46:08;100620.91;;;5.37;40.74
63321;BME280;49449;48.800;9.534;2023-02-12T07:48:38;100620.91;;;5.37;41.41
63321;BME280;49449;48.800;9.534;2023-02-12T07:51:07;100615.22;;;5.42;41.20
63321;BME280;49449;48.800;9.534;2023-02-12T07:53:36;100625.00;;;5.49;41.14
63321;BME280;49449;48.800;9.534;2023-02-12T07:56:06;100620.31;;;5.53;41.55
63321;BME280;49449;48.800;9.534;2023-02-12T07:58:33;100615.75;;;5.55;41.45
63321;BME280;49449;48.800;9.534;2023-02-12T08:01:10;100620.69;;;5.58;41.47
63321;BME280;49449;48.800;9.534;2023-02-12T08:03:40;100620.41;;;5.61;41.48
63321;BME280;49449;48.800;9.534;2023-02-12T08:06:09;100623.41;;;5.66;41.41
63321;BME280;49449;48.800;9.534;2023-02-12T08:08:37;100617.06;;;5.69;41.31
63321;BME280;49449;48.800;9.534;2023-02-12T08:11:05;100615.94;;;5.71;40.95
63321;BME280;49449;48.800;9.534;2023-02-12T08:13:33;100622.84;;;5.73;41.02
63321;BME280;49449;48.800;9.534;2023-02-12T08:16:02;100610.41;;;5.75;41.54
63321;BME280;49449;48.800;9.534;2023-02-12T08:18:31;100628.63;;;5.76;41.38
63321;BME280;49449;48.800;9.534;2023-02-12T08:21:05;100622.66;;;5.84;40.64
63321;BME280;49449;48.800;9.534;2023-02-12T08:23:34;100625.00;;;5.87;41.19
63321;BME280;49449;48.800;9.534;2023-02-12T08:26:09;100619.47;;;5.90;41.10
63321;BME280;49449;48.800;9.534;2023-02-12T08:28:39;100613.63;;;5.96;41.41
63321;BME280;49449;48.800;9.534;2023-02-12T08:31:09;100621.06;;;6.01;40.85
63321;BME280;49449;48.800;9.534;2023-02-12T08:33:37;100611.09;;;6.04;40.90
63321;BME280;49449;48.800;9.534;2023-02-12T08:36:08;100620.59;;;6.05;40.37
63321;BME280;49449;48.800;9.534;2023-02-12T08:38:37;100618.38;;;6.11;41.07
63321;BME280;49449;48.800;9.534;2023-02-12T08:41:07;100613.25;;;6.09;40.71
63321;BME280;49449;48.800;9.534;2023-02-12T08:43:36;100614.63;;;6.13;40.68
63321;BME280;49449;48.800;9.534;2023-02-12T08:46:05;100613.50;;;6.16;40.39
63321;BME280;49449;48.800;9.534;2023-02-12T08:48:34;100614.03;;;6.19;40.42
63321;BME280;49449;48.800;9.534;2023-02-12T08:51:04;100610.97;;;6.24;40.22
63321;BME280;49449;48.800;9.534;2023-02-12T08:53:33;100612.50;;;6.44;40.00
63321;BME280;49449;48.800;9.534;2023-02-12T08:56:01;100618.28;;;6.48;39.67
63321;BME280;49449;48.800;9.534;2023-02-12T08:58:29;100618.44;;;6.46;39.76
63321;BME280;49449;48.800;9.534;2023-02-12T09:00:56;100614.41;;;6.52;39.80
63321;BME280;49449;48.800;9.534;2023-02-12T09:03:24;100615.66;;;6.48;40.52
63321;BME280;49449;48.800;9.534;2023-02-12T09:05:52;100607.63;;;6.50;40.51
63321;BME280;49449;48.800;9.534;2023-02-12T09:08:20;100609.00;;;6.54;40.56
63321;BME280;49449;48.800;9.534;2023-02-12T09:10:49;100615.13;;;6.44;40.75
63321;BME280;49449;48.800;9.534;2023-02-12T09:13:17;100609.28;;;6.51;40.37
63321;BME280;49449;48.800;9.534;2023-02-12T09:15:45;100607.03;;;6.56;41.10
63321;BME280;49449;48.800;9.534;2023-02-12T09:18:13;100608.38;;;6.60;41.36
63321;BME280;49449;48.800;9.534;2023-02-12T09:20:43;100611.22;;;6.67;41.08
63321;BME280;49449;48.800;9.534;2023-02-12T09:23:12;100607.69;;;6.76;40.24
63321;BME280;49449;48.800;9.534;2023-02-12T09:25:42;100601.31;;;6.78;40.82
63321;BME280;49449;48.800;9.534;2023-02-12T09:28:12;100602.03;;;6.89;42.06
63321;BME280;49449;48.800;9.534;2023-02-12T09:30:40;100604.88;;;6.95;42.43
63321;BME280;49449;48.800;9.534;2023-02-12T09:33:09;100607.38;;;6.97;42.33
63321;BME280;49449;48.800;9.534;2023-02-12T09:35:38;100610.66;;;6.99;41.87
63321;BME280;49449;48.800;9.534;2023-02-12T09:38:06;100611.31;;;7.01;41.18
63321;BME280;49449;48.800;9.534;2023-02-12T09:40:39;100605.41;;;6.99;42.98
63321;BME280;49449;48.800;9.534;2023-02-12T09:43:30;100598.31;;;7.17;45.65
63321;BME280;49449;48.800;9.534;2023-02-12T09:46:04;100609.72;;;7.34;43.69
63321;BME280;49449;48.800;9.534;2023-02-12T09:48:47;100613.28;;;7.51;43.51
63321;BME280;49449;48.800;9.534;2023-02-12T09:51:20;100612.13;;;7.72;42.83
63321;BME280;49449;48.800;9.534;2023-02-12T09:53:54;100608.88;;;7.86;42.24
63321;BME280;49449;48.800;9.534;2023-02-12T09:56:26;100614.50;;;8.00;41.96
63321;BME280;49449;48.800;9.534;2023-02-12T09:58:58;100612.88;;;8.07;41.68
63321;BME280;49449;48.800;9.534;2023-02-12T10:01:28;100605.16;;;8.13;40.93
63321;BME280;49449;48.800;9.534;2023-02-12T10:03:57;100609.28;;;8.16;40.30
63321;BME280;49449;48.800;9.534;2023-02-12T10:06:26;100609.28;;;8.16;40.84
63321;BME280;49449;48.800;9.534;2023-02-12T10:09:02;100618.47;;;8.12;40.89
63321;BME280;49449;48.800;9.534;2023-02-12T10:11:49;100609.63;;;8.13;40.85
63321;BME280;49449;48.800;9.534;2023-02-12T10:14:32;100615.34;;;8.08;39.85
63321;BME280;49449;48.800;9.534;2023-02-12T10:17:10;100618.81;;;8.09;39.65
63321;BME280;49449;48.800;9.534;2023-02-12T10:20:11;100618.63;;;8.10;39.54
63321;BME280;49449;48.800;9.534;2023-02-12T10:22:49;100614.53;;;8.08;39.22
63321;BME280;49449;48.800;9.534;2023-02-12T10:25:27;100609.38;;;7.98;39.66
63321;BME280;49449;48.800;9.534;2023-02-12T10:28:00;100606.59;;;7.91;40.97
63321;BME280;49449;48.800;9.534;2023-02-12T10:30:39;100608.13;;;7.68;40.75
63321;BME280;49449;48.800;9.534;2023-02-12T10:33:12;100603.72;;;7.68;40.42
63321;BME280;49449;48.800;9.534;2023-02-12T10:35:46;100606.00;;;7.45;40.60
63321;BME280;49449;48.800;9.534;2023-02-12T10:38:19;100610.97;;;7.48;40.53
63321;BME280;49449;48.800;9.534;2023-02-12T10:40:47;100607.38;;;7.49;40.77
63321;BME280;49449;48.800;9.534;2023-02-12T10:43:16;100607.44;;;7.31;40.79
63321;BME280;49449;48.800;9.534;2023-02-12T10:45:45;100603.97;;;7.31;41.38
63321;BME280;49449;48.800;9.534;2023-02-12T10:48:17;100604.91;;;7.21;41.08
63321;BME280;49449;48.800;9.534;2023-02-12T10:50:59;100601.84;;;7.34;41.06
63321;BME280;49449;48.800;9.534;2023-02-12T10:53:31;100593.44;;;7.31;41.85
63321;BME280;49449;48.800;9.534;2023-02-12T10:56:11;100593.97;;;7.08;41.74
63321;BME280;49449;48.800;9.534;2023-02-12T10:58:42;100592.63;;;7.30;41.09
63321;BME280;49449;48.800;9.534;2023-02-12T11:01:20;100592.00;;;7.36;41.47
63321;BME280;49449;48.800;9.534;2023-02-12T11:03:52;100593.50;;;7.39;41.25
63321;BME280;49449;48.800;9.534;2023-02-12T11:06:21;100589.38;;;7.36;41.27
63321;BME280;49449;48.800;9.534;2023-02-12T11:08:49;100584.78;;;7.38;41.04
63321;BME280;49449;48.800;9.534;2023-02-12T11:11:20;100585.00;;;7.19;42.14
63321;BME280;49449;48.800;9.534;2023-02-12T11:13:53;100579.44;;;7.22;42.23
63321;BME280;49449;48.800;9.534;2023-02-12T11:16:28;100585.88;;;7.28;41.62
63321;BME280;49449;48.800;9.534;2023-02-12T11:18:58;100579.63;;;7.02;41.57
63321;BME280;49449;48.800;9.534;2023-02-12T11:21:26;100579.28;;;7.23;41.28
63321;BME280;49449;48.800;9.534;2023-02-12T11:23:54;100569.84;;;7.39;41.01
63321;BME280;49449;48.800;9.534;2023-02-12T11:26:25;100571.13;;;7.35;41.69
63321;BME280;49449;48.800;9.534;2023-02-12T11:28:55;100573.44;;;7.38;41.41
63321;BME280;49449;48.800;9.534;2023-02-12T11:31:25;100569.69;;;7.49;40.80
63321;BME280;49449;48.800;9.534;2023-02-12T11:34:13;100571.50;;;7.40;40.85
63321;BME280;49449;48.800;9.534;2023-02-12T11:36:43;100574.28;;;7.38;40.42
63321;BME280;49449;48.800;9.534;2023-02-12T11:39:20;100572.81;;;7.44;40.57
63321;BME280;49449;48.800;9.534;2023-02-12T11:41:51;100581.31;;;7.38;40.68
63321;BME280;49449;48.800;9.534;2023-02-12T11:44:22;100574.97;;;7.49;40.31
63321;BME280;49449;48.800;9.534;2023-02-12T11:46:53;100571.66;;;7.47;40.63
63321;BME280;49449;48.800;9.534;2023-02-12T11:49:23;100577.66;;;7.22;40.98
63321;BME280;49449;48.800;9.534;2023-02-12T11:51:52;100570.34;;;7.43;40.66
63321;BME280;49449;48.800;9.534;2023-02-12T11:54:23;100579.41;;;7.48;40.41
63321;BME280;49449;48.800;9.534;2023-02-12T12:57:53;100545.59;;;2.81;54.55
63321;BME280;49449;48.800;9.534;2023-02-12T13:00:40;100542.13;;;4.04;51.22
63321;BME280;49449;48.800;9.534;2023-02-12T13:06:29;100535.34;;;5.92;45.99
63321;BME280;49449;48.800;9.534;2023-02-12T13:09:10;100526.91;;;6.34;44.57
63321;BME280;49449;48.800;9.534;2023-02-12T13:11:50;100526.34;;;6.92;43.56
63321;BME280;49449;48.800;9.534;2023-02-12T13:14:28;100527.41;;;7.34;43.17
63321;BME280;49449;48.800;9.534;2023-02-12T13:17:04;100516.72;;;7.78;42.02
63321;BME280;49449;48.800;9.534;2023-02-12T13:19:49;100508.06;;;8.02;41.52
63321;BME280;49449;48.800;9.534;2023-02-12T13:22:23;100514.31;;;8.17;40.40
63321;BME280;49449;48.800;9.534;2023-02-12T13:24:56;100516.47;;;8.47;40.40
63321;BME280;49449;48.800;9.534;2023-02-12T13:27:31;100512.69;;;8.66;39.87
63321;BME280;49449;48.800;9.534;2023-02-12T13:30:09;100509.19;;;8.73;39.23
63321;BME280;49449;48.800;9.534;2023-02-12T13:32:48;100511.22;;;8.47;39.65
63321;BME280;49449;48.800;9.534;2023-02-12T13:35:20;100501.97;;;8.59;39.54
63321;BME280;49449;48.800;9.534;2023-02-12T13:37:52;100498.81;;;8.72;39.37
63321;BME280;49449;48.800;9.534;2023-02-12T13:40:22;100495.53;;;8.95;38.98
63321;BME280;49449;48.800;9.534;2023-02-12T13:42:54;100497.13;;;9.04;38.75
63321;BME280;49449;48.800;9.534;2023-02-12T13:45:46;100494.56;;;8.63;38.88
63321;BME280;49449;48.800;9.534;2023-02-12T13:48:27;100489.78;;;8.66;38.85
63321;BME280;49449;48.800;9.534;2023-02-12T13:51:05;100496.06;;;8.65;38.85
63321;BME280;49449;48.800;9.534;2023-02-12T13:53:49;100490.09;;;8.63;38.71
63321;BME280;49449;48.800;9.534;2023-02-12T13:56:36;100492.41;;;8.58;38.89
63321;BME280;49449;48.800;9.534;2023-02-12T13:59:38;100490.91;;;8.72;38.71
63321;BME280;49449;48.800;9.534;2023-02-12T14:02:27;100492.59;;;8.65;38.71
63321;BME280;49449;48.800;9.534;2023-02-12T14:04:56;100489.94;;;8.73;38.57
63321;BME280;49449;48.800;9.534;2023-02-12T14:07:40;100481.06;;;8.66;38.61
63321;BME280;49449;48.800;9.534;2023-02-12T14:10:20;100477.63;;;8.65;39.18
63321;BME280;49449;48.800;9.534;2023-02-12T14:12:49;100481.38;;;8.71;38.79
63321;BME280;49449;48.800;9.534;2023-02-12T14:15:29;100466.72;;;8.68;38.79
63321;BME280;49449;48.800;9.534;2023-02-12T14:18:22;100473.81;;;8.68;38.98
63321;BME280;49449;48.800;9.534;2023-02-12T14:27:31;100454.59;;;8.18;40.21
63321;BME280;49449;48.800;9.534;2023-02-12T14:33:09;100459.19;;;8.08;40.00
63321;BME280;49449;48.800;9.534;2023-02-12T14:35:39;100449.66;;;8.07;40.14
63321;BME280;49449;48.800;9.534;2023-02-12T14:41:37;100452.44;;;8.05;40.06
63321;BME280;49449;48.800;9.534;2023-02-12T14:44:36;100454.09;;;7.98;39.99